sensor_id;sensor_type;location;lat;lon;timestamp;pressure;altitude;pressure_sealevel;temperature;humidity
70434;BME280;57876;47.792;12.960;2023-04-26T00:01:17;96666.22;;;14.47;51.87
70434;BME280;57876;47.792;12.960;2023-04-26T00:03:41;96678.72;;;14.48;51.82
70434;BME280;57876;47.792;12.960;2023-04-26T00:06:06;96670.06;;;14.46;51.51
70434;BME280;57876;47.792;12.960;2023-04-26T00:08:33;96676.28;;;14.46;51.66
70434;BME280;57876;47.792;12.960;2023-04-26T00:10:57;96676.28;;;14.46;51.94
70434;BME280;57876;47.792;12.960;2023-04-26T00:13:22;96671.69;;;14.47;51.52
70434;BME280;57876;47.792;12.960;2023-04-26T00:15:46;96670.06;;;14.46;51.68
70434;BME280;57876;47.792;12.960;2023-04-26T00:18:11;96668.47;;;14.45;51.50
70434;BME280;57876;47.792;12.960;2023-04-26T00:20:35;96663.81;;;14.45;51.56
70434;BME280;57876;47.792;12.960;2023-04-26T00:23:00;96664.59;;;14.46;52.04
70434;BME280;57876;47.792;12.960;2023-04-26T00:25:24;96664.59;;;14.46;51.74
70434;BME280;57876;47.792;12.960;2023-04-26T00:27:49;96672.78;;;14.46;51.40
70434;BME280;57876;47.792;12.960;2023-04-26T00:30:13;96668.47;;;14.45;51.49
70434;BME280;57876;47.792;12.960;2023-04-26T00:32:38;96665.41;;;14.46;51.71
70434;BME280;57876;47.792;12.960;2023-04-26T00:35:03;96664.59;;;14.46;51.69
70434;BME280;57876;47.792;12.960;2023-04-26T00:37:27;96663.00;;;14.45;51.47
70434;BME280;57876;47.792;12.960;2023-04-26T00:39:52;96667.66;;;14.44;51.54
70434;BME280;57876;47.792;12.960;2023-04-26T00:42:16;96665.72;;;14.45;51.50
70434;BME280;57876;47.792;12.960;2023-04-26T00:44:42;96675.50;;;14.46;51.61
70434;BME280;57876;47.792;12.960;2023-04-26T00:47:06;96680.13;;;14.45;51.59
70434;BME280;57876;47.792;12.960;2023-04-26T00:49:31;96673.09;;;14.44;51.37
70434;BME280;57876;47.792;12.960;2023-04-26T00:51:56;96671.19;;;14.45;51.72
70434;BME280;57876;47.792;12.960;2023-04-26T00:54:21;96675.50;;;14.46;51.93
70434;BME280;57876;47.792;12.960;2023-04-26T00:56:46;96669.25;;;14.45;51.56
70434;BME280;57876;47.792;12.960;2023-04-26T00:59:10;96668.75;;;14.43;51.71
70434;BME280;57876;47.792;12.960;2023-04-26T01:01:35;96680.44;;;14.44;51.89
70434;BME280;57876;47.792;12.960;2023-04-26T01:03:59;96679.34;;;14.45;51.46
70434;BME280;57876;47.792;12.960;2023-04-26T01:06:24;96671.47;;;14.43;51.44
70434;BME280;57876;47.792;12.960;2023-04-26T01:08:52;96678.53;;;14.44;51.40
70434;BME280;57876;47.792;12.960;2023-04-26T01:11:20;96666.84;;;14.44;51.75
70434;BME280;57876;47.792;12.960;2023-04-26T01:13:45;96673.41;;;14.43;51.59
70434;BME280;57876;47.792;12.960;2023-04-26T01:16:11;96673.41;;;14.43;51.39
70434;BME280;57876;47.792;12.960;2023-04-26T01:18:37;96672.28;;;14.44;51.66
70434;BME280;57876;47.792;12.960;2023-04-26T01:21:01;96671.81;;;14.42;51.58
70434;BME280;57876;47.792;12.960;2023-04-26T01:23:27;96671.47;;;14.43;51.83
70434;BME280;57876;47.792;12.960;2023-04-26T01:25:52;96675.63;;;14.41;51.35
70434;BME280;57876;47.792;12.960;2023-04-26T01:28:16;96677.72;;;14.44;51.88
70434;BME280;57876;47.792;12.960;2023-04-26T01:30:42;96684.28;;;14.43;51.92
70434;BME280;57876;47.792;12.960;2023-04-26T01:33:06;96676.91;;;14.43;51.68
70434;BME280;57876;47.792;12.960;2023-04-26T01:35:30;96676.13;;;14.43;51.79
70434;BME280;57876;47.792;12.960;2023-04-26T01:37:55;96681.56;;;14.43;51.38
70434;BME280;57876;47.792;12.960;2023-04-26T01:40:19;96679.97;;;14.42;51.68
70434;BME280;57876;47.792;12.960;2023-04-26T01:42:45;96676.75;;;14.40;51.49
70434;BME280;57876;47.792;12.960;2023-04-26T01:45:10;96687.00;;;14.43;51.64
70434;BME280;57876;47.792;12.960;2023-04-26T01:47:34;96685.41;;;14.42;51.46
70434;BME280;57876;47.792;12.960;2023-04-26T01:49:59;96693.56;;;14.42;51.66
70434;BME280;57876;47.792;12.960;2023-04-26T01:52:23;96690.84;;;14.42;51.41
70434;BME280;57876;47.792;12.960;2023-04-26T01:54:48;96685.41;;;14.42;51.44
70434;BME280;57876;47.792;12.960;2023-04-26T01:57:12;96697.38;;;14.41;51.69
70434;BME280;57876;47.792;12.960;2023-04-26T01:59:37;96694.66;;;14.41;51.71
70434;BME280;57876;47.792;12.960;2023-04-26T02:02:01;96688.44;;;14.40;51.47
70434;BME280;57876;47.792;12.960;2023-04-26T02:04:26;96697.38;;;14.41;51.88
70434;BME280;57876;47.792;12.960;2023-04-26T02:06:51;96698.50;;;14.40;51.53
70434;BME280;57876;47.792;12.960;2023-04-26T02:09:15;96692.28;;;14.39;51.42
70434;BME280;57876;47.792;12.960;2023-04-26T02:11:40;96687.13;;;14.38;51.70
70434;BME280;57876;47.792;12.960;2023-04-26T02:14:04;96695.47;;;14.41;51.31
70434;BME280;57876;47.792;12.960;2023-04-26T02:16:28;96686.84;;;14.39;51.61
70434;BME280;57876;47.792;12.960;2023-04-26T02:18:53;96689.56;;;14.39;51.50
70434;BME280;57876;47.792;12.960;2023-04-26T02:21:18;96693.06;;;14.40;51.49
70434;BME280;57876;47.792;12.960;2023-04-26T02:23:42;96679.47;;;14.40;51.65
70434;BME280;57876;47.792;12.960;2023-04-26T02:26:07;96676.75;;;14.40;51.60
70434;BME280;57876;47.792;12.960;2023-04-26T02:28:31;96679.47;;;14.40;51.79
70434;BME280;57876;47.792;12.960;2023-04-26T02:30:55;96688.72;;;14.39;51.50
70434;BME280;57876;47.792;12.960;2023-04-26T02:33:20;96681.41;;;14.39;51.33
70434;BME280;57876;47.792;12.960;2023-04-26T02:35:44;96679.78;;;14.38;51.45
70434;BME280;57876;47.792;12.960;2023-04-26T02:38:09;96688.72;;;14.39;51.47
70434;BME280;57876;47.792;12.960;2023-04-26T02:40:33;96681.41;;;14.39;51.65
70434;BME280;57876;47.792;12.960;2023-04-26T02:42:58;96680.91;;;14.37;51.60
70434;BME280;57876;47.792;12.960;2023-04-26T02:45:22;96680.56;;;14.39;51.79
70434;BME280;57876;47.792;12.960;2023-04-26T02:47:46;96689.84;;;14.38;51.52
70434;BME280;57876;47.792;12.960;2023-04-26T02:50:11;96684.41;;;14.38;51.75
70434;BME280;57876;47.792;12.960;2023-04-26T02:52:36;96680.56;;;14.39;51.67
70434;BME280;57876;47.792;12.960;2023-04-26T02:55:02;96686.00;;;14.39;51.46
70434;BME280;57876;47.792;12.960;2023-04-26T02:57:27;96678.97;;;14.38;51.73
70434;BME280;57876;47.792;12.960;2023-04-26T02:59:51;96680.56;;;14.39;51.87
70434;BME280;57876;47.792;12.960;2023-04-26T03:02:16;96686.00;;;14.39;51.57
70434;BME280;57876;47.792;12.960;2023-04-26T03:04:40;96685.22;;;14.38;51.71
70434;BME280;57876;47.792;12.960;2023-04-26T03:07:05;96680.09;;;14.37;51.52
70434;BME280;57876;47.792;12.960;2023-04-26T03:09:29;96685.53;;;14.37;51.61
70434;BME280;57876;47.792;12.960;2023-04-26T03:11:54;96685.22;;;14.38;51.71
70434;BME280;57876;47.792;12.960;2023-04-26T03:14:18;96697.22;;;14.37;51.22
70434;BME280;57876;47.792;12.960;2023-04-26T03:16:43;96678.19;;;14.37;51.52
70434;BME280;57876;47.792;12.960;2023-04-26T03:19:07;96681.53;;;14.34;51.58
70434;BME280;57876;47.792;12.960;2023-04-26T03:21:32;96687.13;;;14.38;51.80
70434;BME280;57876;47.792;12.960;2023-04-26T03:23:56;96685.53;;;14.37;51.67
70434;BME280;57876;47.792;12.960;2023-04-26T03:26:21;96683.13;;;14.35;51.56
70434;BME280;57876;47.792;12.960;2023-04-26T03:28:45;96693.69;;;14.37;51.48
70434;BME280;57876;47.792;12.960;2023-04-26T03:31:10;96693.69;;;14.37;51.58
70434;BME280;57876;47.792;12.960;2023-04-26T03:33:34;96698.34;;;14.36;51.56
70434;BME280;57876;47.792;12.960;2023-04-26T03:35:59;96701.06;;;14.36;51.45
70434;BME280;57876;47.792;12.960;2023-04-26T03:38:23;96714.66;;;14.36;51.39
70434;BME280;57876;47.792;12.960;2023-04-26T03:40:48;96714.66;;;14.36;51.65
70434;BME280;57876;47.792;12.960;2023-04-26T03:43:12;96714.66;;;14.36;51.64
70434;BME280;57876;47.792;12.960;2023-04-26T03:45:37;96715.75;;;14.35;51.63
70434;BME280;57876;47.792;12.960;2023-04-26T03:48:01;96720.91;;;14.37;51.57
70434;BME280;57876;47.792;12.960;2023-04-26T03:50:25;96709.81;;;14.33;51.34
70434;BME280;57876;47.792;12.960;2023-04-26T03:52:50;96719.28;;;14.36;51.50
70434;BME280;57876;47.792;12.960;2023-04-26T03:55:14;96717.69;;;14.35;51.67
70434;BME280;57876;47.792;12.960;2023-04-26T03:57:39;96709.53;;;14.35;51.39
70434;BME280;57876;47.792;12.960;2023-04-26T04:00:04;96718.81;;;14.34;51.83
70434;BME280;57876;47.792;12.960;2023-04-26T04:02:34;96716.91;;;14.34;51.48
70434;BME280;57876;47.792;12.960;2023-04-26T04:04:59;96716.09;;;14.34;51.77
70434;BME280;57876;47.792;12.960;2023-04-26T04:07:24;96721.53;;;14.34;51.63
70434;BME280;57876;47.792;12.960;2023-04-26T04:09:48;96716.91;;;14.34;51.25
70434;BME280;57876;47.792;12.960;2023-04-26T04:12:12;96718.81;;;14.34;51.46
70434;BME280;57876;47.792;12.960;2023-04-26T04:14:37;96721.53;;;14.34;51.12
70434;BME280;57876;47.792;12.960;2023-04-26T04:17:01;96726.97;;;14.34;51.41
70434;BME280;57876;47.792;12.960;2023-04-26T04:19:26;96722.63;;;14.32;51.43
70434;BME280;57876;47.792;12.960;2023-04-26T04:21:50;96721.84;;;14.32;51.35
70434;BME280;57876;47.792;12.960;2023-04-26T04:24:15;96729.19;;;14.31;51.70
70434;BME280;57876;47.792;12.960;2023-04-26T04:26:40;96732.72;;;14.32;51.85
70434;BME280;57876;47.792;12.960;2023-04-26T04:29:04;96731.91;;;14.31;52.08
70434;BME280;57876;47.792;12.960;2023-04-26T04:31:32;96727.28;;;14.32;51.41
70434;BME280;57876;47.792;12.960;2023-04-26T04:33:56;96724.38;;;14.28;51.75
70434;BME280;57876;47.792;12.960;2023-04-26T04:36:21;96725.34;;;14.32;51.32
70434;BME280;57876;47.792;12.960;2023-04-26T04:38:46;96732.41;;;14.34;51.71
70434;BME280;57876;47.792;12.960;2023-04-26T04:41:10;96736.56;;;14.31;51.43
70434;BME280;57876;47.792;12.960;2023-04-26T04:43:35;96751.47;;;14.34;51.36
70434;BME280;57876;47.792;12.960;2023-04-26T04:46:00;96741.69;;;14.32;51.36
70434;BME280;57876;47.792;12.960;2023-04-26T04:48:24;96749.03;;;14.32;51.57
70434;BME280;57876;47.792;12.960;2023-04-26T04:50:49;96749.34;;;14.30;51.41
70434;BME280;57876;47.792;12.960;2023-04-26T04:53:13;96750.63;;;14.33;51.46
70434;BME280;57876;47.792;12.960;2023-04-26T04:55:38;96753.69;;;14.31;51.69
70434;BME280;57876;47.792;12.960;2023-04-26T04:58:03;96757.19;;;14.32;51.67
70434;BME280;57876;47.792;12.960;2023-04-26T05:00:27;96754.78;;;14.30;51.74
70434;BME280;57876;47.792;12.960;2023-04-26T05:02:52;96761.84;;;14.31;51.54
70434;BME280;57876;47.792;12.960;2023-04-26T05:05:16;96767.28;;;14.31;51.68
70434;BME280;57876;47.792;12.960;2023-04-26T05:07:41;96773.53;;;14.32;51.26
70434;BME280;57876;47.792;12.960;2023-04-26T05:10:05;96777.03;;;14.32;51.43
70434;BME280;57876;47.792;12.960;2023-04-26T05:12:30;96778.16;;;14.31;51.33
70434;BME280;57876;47.792;12.960;2023-04-26T05:14:55;96778.97;;;14.32;51.71
70434;BME280;57876;47.792;12.960;2023-04-26T05:17:19;96785.19;;;14.32;51.44
70434;BME280;57876;47.792;12.960;2023-04-26T05:19:44;96790.97;;;14.31;51.69
70434;BME280;57876;47.792;12.960;2023-04-26T05:22:08;96786.63;;;14.30;51.59
70434;BME280;57876;47.792;12.960;2023-04-26T05:24:33;96795.28;;;14.32;51.63
70434;BME280;57876;47.792;12.960;2023-04-26T05:26:58;96789.03;;;14.31;51.53
70434;BME280;57876;47.792;12.960;2023-04-26T05:29:23;96790.66;;;14.32;51.71
70434;BME280;57876;47.792;12.960;2023-04-26T05:31:47;96790.66;;;14.32;51.20
70434;BME280;57876;47.792;12.960;2023-04-26T05:34:12;96796.41;;;14.31;51.66
70434;BME280;57876;47.792;12.960;2023-04-26T05:36:36;96799.94;;;14.31;51.49
70434;BME280;57876;47.792;12.960;2023-04-26T05:39:01;96793.38;;;14.32;51.80
70434;BME280;57876;47.792;12.960;2023-04-26T05:41:25;96805.03;;;14.33;51.22
70434;BME280;57876;47.792;12.960;2023-04-26T05:43:49;96803.44;;;14.32;51.58
70434;BME280;57876;47.792;12.960;2023-04-26T05:46:14;96806.16;;;14.32;51.41
70434;BME280;57876;47.792;12.960;2023-04-26T05:48:38;96798.31;;;14.30;51.58
70434;BME280;57876;47.792;12.960;2023-04-26T05:51:03;96808.88;;;14.32;51.53
70434;BME280;57876;47.792;12.960;2023-04-26T05:53:27;96814.34;;;14.32;51.43
70434;BME280;57876;47.792;12.960;2023-04-26T05:55:52;96816.25;;;14.31;51.58
70434;BME280;57876;47.792;12.960;2023-04-26T05:58:22;96816.25;;;14.31;51.49
70434;BME280;57876;47.792;12.960;2023-04-26T06:00:46;96812.41;;;14.32;51.50
70434;BME280;57876;47.792;12.960;2023-04-26T06:03:11;96811.63;;;14.32;51.31
70434;BME280;57876;47.792;12.960;2023-04-26T06:05:35;96810.50;;;14.33;51.60
70434;BME280;57876;47.792;12.960;2023-04-26T06:08:01;96824.09;;;14.33;51.33
70434;BME280;57876;47.792;12.960;2023-04-26T06:10:26;96824.72;;;14.30;51.34
70434;BME280;57876;47.792;12.960;2023-04-26T06:12:50;96825.50;;;14.30;51.43
70434;BME280;57876;47.792;12.960;2023-04-26T06:15:15;96827.13;;;14.31;51.59
70434;BME280;57876;47.792;12.960;2023-04-26T06:17:40;96825.22;;;14.32;51.54
70434;BME280;57876;47.792;12.960;2023-04-26T06:20:08;96833.38;;;14.32;51.25
70434;BME280;57876;47.792;12.960;2023-04-26T06:22:36;96828.72;;;14.32;51.75
70434;BME280;57876;47.792;12.960;2023-04-26T06:25:01;96831.44;;;14.32;51.22
70434;BME280;57876;47.792;12.960;2023-04-26T06:27:26;96826.34;;;14.31;51.49
70434;BME280;57876;47.792;12.960;2023-04-26T06:29:50;96819.78;;;14.32;51.67
70434;BME280;57876;47.792;12.960;2023-04-26T06:32:15;96823.28;;;14.32;51.41
70434;BME280;57876;47.792;12.960;2023-04-26T06:34:40;96823.28;;;14.32;51.62
70434;BME280;57876;47.792;12.960;2023-04-26T06:37:04;96829.22;;;14.35;51.38
70434;BME280;57876;47.792;12.960;2023-04-26T06:39:29;96826.81;;;14.33;51.33
70434;BME280;57876;47.792;12.960;2023-04-26T06:41:53;96832.25;;;14.33;51.21
70434;BME280;57876;47.792;12.960;2023-04-26T06:44:18;96842.03;;;14.34;51.12
70434;BME280;57876;47.792;12.960;2023-04-26T06:46:42;96847.47;;;14.34;51.63
70434;BME280;57876;47.792;12.960;2023-04-26T06:49:07;96851.00;;;14.35;51.32
70434;BME280;57876;47.792;12.960;2023-04-26T06:51:31;96853.72;;;14.35;51.33
70434;BME280;57876;47.792;12.960;2023-04-26T06:53:55;96846.69;;;14.34;51.37
70434;BME280;57876;47.792;12.960;2023-04-26T06:56:22;96848.56;;;14.33;51.46
70434;BME280;57876;47.792;12.960;2023-04-26T06:59:01;96859.16;;;14.35;51.41
70434;BME280;57876;47.792;12.960;2023-04-26T07:01:26;96858.38;;;14.34;51.56
70434;BME280;57876;47.792;12.960;2023-04-26T07:03:52;96850.50;;;14.32;51.38
70434;BME280;57876;47.792;12.960;2023-04-26T07:06:16;96852.13;;;14.34;51.56
70434;BME280;57876;47.792;12.960;2023-04-26T07:08:41;96852.13;;;14.34;51.28
70434;BME280;57876;47.792;12.960;2023-04-26T07:11:09;96856.16;;;14.36;51.35
70434;BME280;57876;47.792;12.960;2023-04-26T07:13:34;96851.50;;;14.37;51.70
70434;BME280;57876;47.792;12.960;2023-04-26T07:15:59;96847.66;;;14.38;51.30
70434;BME280;57876;47.792;12.960;2023-04-26T07:18:25;96851.19;;;14.38;51.45
70434;BME280;57876;47.792;12.960;2023-04-26T07:20:49;96853.09;;;14.38;51.13
70434;BME280;57876;47.792;12.960;2023-04-26T07:23:14;96850.09;;;14.39;51.35
70434;BME280;57876;47.792;12.960;2023-04-26T07:25:38;96859.06;;;14.40;51.71
70434;BME280;57876;47.792;12.960;2023-04-26T07:28:03;96857.13;;;14.40;51.55
70434;BME280;57876;47.792;12.960;2023-04-26T07:30:27;96856.00;;;14.41;51.40
70434;BME280;57876;47.792;12.960;2023-04-26T07:32:52;96865.00;;;14.42;51.14
70434;BME280;57876;47.792;12.960;2023-04-26T07:35:16;96848.66;;;14.42;51.49
70434;BME280;57876;47.792;12.960;2023-04-26T07:37:42;96842.91;;;14.43;51.21
70434;BME280;57876;47.792;12.960;2023-04-26T07:40:09;96847.03;;;14.41;51.27
70434;BME280;57876;47.792;12.960;2023-04-26T07:42:34;96843.69;;;14.44;51.09
70434;BME280;57876;47.792;12.960;2023-04-26T07:44:59;96857.00;;;14.45;51.12
70434;BME280;57876;47.792;12.960;2023-04-26T07:47:24;96848.03;;;14.45;51.15
70434;BME280;57876;47.792;12.960;2023-04-26T07:49:52;96857.81;;;14.46;51.35
70434;BME280;57876;47.792;12.960;2023-04-26T07:52:17;96850.25;;;14.43;51.16
70434;BME280;57876;47.792;12.960;2023-04-26T07:54:44;96848.03;;;14.45;51.08
70434;BME280;57876;47.792;12.960;2023-04-26T07:57:08;96851.56;;;14.45;51.27
70434;BME280;57876;47.792;12.960;2023-04-26T07:59:33;96853.50;;;14.45;51.37
70434;BME280;57876;47.792;12.960;2023-04-26T08:01:59;96852.69;;;14.44;51.33
70434;BME280;57876;47.792;12.960;2023-04-26T08:04:31;96851.56;;;14.45;51.30
70434;BME280;57876;47.792;12.960;2023-04-26T08:06:59;96853.50;;;14.45;51.41
70434;BME280;57876;47.792;12.960;2023-04-26T08:09:25;96854.59;;;14.44;51.36
70434;BME280;57876;47.792;12.960;2023-04-26T08:11:49;96857.31;;;14.44;50.99
70434;BME280;57876;47.792;12.960;2023-04-26T08:14:14;96856.50;;;14.43;51.16
70434;BME280;57876;47.792;12.960;2023-04-26T08:16:38;96853.50;;;14.45;51.27
70434;BME280;57876;47.792;12.960;2023-04-26T08:19:02;96853.50;;;14.45;51.11
70434;BME280;57876;47.792;12.960;2023-04-26T08:21:27;96856.22;;;14.45;51.12
70434;BME280;57876;47.792;12.960;2023-04-26T08:23:51;96851.88;;;14.44;50.93
70434;BME280;57876;47.792;12.960;2023-04-26T08:26:16;96859.72;;;14.45;51.19
70434;BME280;57876;47.792;12.960;2023-04-26T08:28:40;96854.09;;;14.42;51.02
70434;BME280;57876;47.792;12.960;2023-04-26T08:31:04;96855.72;;;14.43;51.42
70434;BME280;57876;47.792;12.960;2023-04-26T08:33:29;96851.88;;;14.44;51.19
70434;BME280;57876;47.792;12.960;2023-04-26T08:35:53;96857.31;;;14.44;51.40
70434;BME280;57876;47.792;12.960;2023-04-26T08:38:18;96849.47;;;14.42;51.19
70434;BME280;57876;47.792;12.960;2023-04-26T08:40:45;96850.88;;;14.40;51.34
70434;BME280;57876;47.792;12.960;2023-04-26T08:43:10;96859.56;;;14.42;51.20
70434;BME280;57876;47.792;12.960;2023-04-26T08:45:37;96854.09;;;14.42;51.43
70434;BME280;57876;47.792;12.960;2023-04-26T08:48:05;96858.44;;;14.43;51.15
70434;BME280;57876;47.792;12.960;2023-04-26T08:50:35;96857.94;;;14.41;51.52
70434;BME280;57876;47.792;12.960;2023-04-26T08:53:01;96851.06;;;14.43;51.32
70434;BME280;57876;47.792;12.960;2023-04-26T08:55:27;96855.72;;;14.43;51.43
70434;BME280;57876;47.792;12.960;2023-04-26T08:57:51;96848.66;;;14.42;51.49
70434;BME280;57876;47.792;12.960;2023-04-26T09:00:16;96848.84;;;14.45;51.29
70434;BME280;57876;47.792;12.960;2023-04-26T09:02:49;96854.28;;;14.45;51.03
70434;BME280;57876;47.792;12.960;2023-04-26T09:05:15;96839.88;;;14.45;51.39
70434;BME280;57876;47.792;12.960;2023-04-26T09:07:44;96845.31;;;14.45;51.42
70434;BME280;57876;47.792;12.960;2023-04-26T09:10:10;96856.22;;;14.45;51.10
70434;BME280;57876;47.792;12.960;2023-04-26T09:12:35;96838.75;;;14.46;51.20
70434;BME280;57876;47.792;12.960;2023-04-26T09:15:00;96845.00;;;14.46;51.30
70434;BME280;57876;47.792;12.960;2023-04-26T09:17:35;96841.19;;;14.47;51.14
70434;BME280;57876;47.792;12.960;2023-04-26T09:20:26;96834.94;;;14.47;51.18
70434;BME280;57876;47.792;12.960;2023-04-26T09:23:04;96829.50;;;14.47;51.23
70434;BME280;57876;47.792;12.960;2023-04-26T09:25:30;96831.41;;;14.46;51.20
70434;BME280;57876;47.792;12.960;2023-04-26T09:27:55;96827.88;;;14.46;51.27
70434;BME280;57876;47.792;12.960;2023-04-26T09:30:21;96829.00;;;14.45;51.22
70434;BME280;57876;47.792;12.960;2023-04-26T09:35:41;96826.28;;;14.45;51.13
70434;BME280;57876;47.792;12.960;2023-04-26T09:38:07;96828.50;;;14.43;51.28
70434;BME280;57876;47.792;12.960;2023-04-26T09:40:43;96833.16;;;14.42;51.11
70434;BME280;57876;47.792;12.960;2023-04-26T09:43:11;96824.66;;;14.44;51.10
70434;BME280;57876;47.792;12.960;2023-04-26T09:45:48;96818.75;;;14.42;51.15
70434;BME280;57876;47.792;12.960;2023-04-26T09:48:17;96830.94;;;14.44;51.05
70434;BME280;57876;47.792;12.960;2023-04-26T09:50:44;96818.41;;;14.43;50.97
70434;BME280;57876;47.792;12.960;2023-04-26T09:53:09;96827.38;;;14.44;51.20
70434;BME280;57876;47.792;12.960;2023-04-26T09:55:34;96815.41;;;14.45;50.93
70434;BME280;57876;47.792;12.960;2023-04-26T09:57:59;96813.75;;;14.44;51.29
70434;BME280;57876;47.792;12.960;2023-04-26T10:00:30;96812.69;;;14.45;51.29
70434;BME280;57876;47.792;12.960;2023-04-26T10:02:55;96818.13;;;14.45;51.17
70434;BME280;57876;47.792;12.960;2023-04-26T10:05:21;96809.16;;;14.44;51.08
70434;BME280;57876;47.792;12.960;2023-04-26T10:07:46;96812.34;;;14.46;51.02
70434;BME280;57876;47.792;12.960;2023-04-26T10:10:11;96806.91;;;14.46;51.48
70434;BME280;57876;47.792;12.960;2023-04-26T10:12:35;96812.34;;;14.46;50.99
70434;BME280;57876;47.792;12.960;2023-04-26T10:15:02;96802.59;;;14.45;51.21
70434;BME280;57876;47.792;12.960;2023-04-26T10:17:27;96817.00;;;14.46;50.88
70434;BME280;57876;47.792;12.960;2023-04-26T10:19:55;96815.41;;;14.45;51.06
70434;BME280;57876;47.792;12.960;2023-04-26T10:22:30;96813.75;;;14.44;50.77
70434;BME280;57876;47.792;12.960;2023-04-26T10:24:56;96803.50;;;14.41;50.95
70434;BME280;57876;47.792;12.960;2023-04-26T10:27:50;96804.50;;;14.45;50.97
70434;BME280;57876;47.792;12.960;2023-04-26T10:30:18;96805.31;;;14.45;51.06
70434;BME280;57876;47.792;12.960;2023-04-26T10:33:09;96802.09;;;14.43;51.30
70434;BME280;57876;47.792;12.960;2023-04-26T10:35:36;96802.28;;;14.47;51.00
70434;BME280;57876;47.792;12.960;2023-04-26T10:38:21;96794.72;;;14.44;51.03
70434;BME280;57876;47.792;12.960;2023-04-26T10:40:45;96792.00;;;14.44;51.06
70434;BME280;57876;47.792;12.960;2023-04-26T10:45:37;96789.47;;;14.47;50.92
70434;BME280;57876;47.792;12.960;2023-04-26T10:48:18;96786.75;;;14.47;50.83
70434;BME280;57876;47.792;12.960;2023-04-26T10:53:23;96785.13;;;14.46;50.92
70434;BME280;57876;47.792;12.960;2023-04-26T10:55:47;96787.56;;;14.48;51.71
70434;BME280;57876;47.792;12.960;2023-04-26T10:58:28;96789.47;;;14.47;50.88
70434;BME280;57876;47.792;12.960;2023-04-26T11:01:14;96781.31;;;14.47;50.72
70434;BME280;57876;47.792;12.960;2023-04-26T11:03:59;96784.34;;;14.46;50.91
70434;BME280;57876;47.792;12.960;2023-04-26T11:06:24;96779.41;;;14.48;51.34
70434;BME280;57876;47.792;12.960;2023-04-26T11:08:50;96778.28;;;14.49;50.92
70434;BME280;57876;47.792;12.960;2023-04-26T11:11:16;96784.53;;;14.49;51.01
70434;BME280;57876;47.792;12.960;2023-04-26T11:13:43;96774.75;;;14.48;50.87
70434;BME280;57876;47.792;12.960;2023-04-26T11:16:09;96776.69;;;14.48;50.87
70434;BME280;57876;47.792;12.960;2023-04-26T11:18:35;96770.09;;;14.49;51.14
70434;BME280;57876;47.792;12.960;2023-04-26T11:21:00;96774.75;;;14.48;51.07
70434;BME280;57876;47.792;12.960;2023-04-26T11:23:27;96779.09;;;14.49;50.78
70434;BME280;57876;47.792;12.960;2023-04-26T11:25:51;96767.72;;;14.47;50.70
70434;BME280;57876;47.792;12.960;2023-04-26T11:28:18;96771.22;;;14.48;50.70
70434;BME280;57876;47.792;12.960;2023-04-26T11:30:42;96763.38;;;14.46;50.72
70434;BME280;57876;47.792;12.960;2023-04-26T11:33:15;96762.28;;;14.47;50.76
70434;BME280;57876;47.792;12.960;2023-04-26T11:35:40;96754.91;;;14.48;51.02
70434;BME280;57876;47.792;12.960;2023-04-26T11:38:05;96761.94;;;14.49;51.01
70434;BME280;57876;47.792;12.960;2023-04-26T11:40:31;96756.50;;;14.49;50.92
70434;BME280;57876;47.792;12.960;2023-04-26T11:43:08;96753.47;;;14.50;50.88
70434;BME280;57876;47.792;12.960;2023-04-26T11:45:34;96747.53;;;14.48;50.96
70434;BME280;57876;47.792;12.960;2023-04-26T11:48:00;96758.13;;;14.50;50.76
70434;BME280;57876;47.792;12.960;2023-04-26T11:50:25;96748.84;;;14.51;50.77
70434;BME280;57876;47.792;12.960;2023-04-26T11:52:55;96737.94;;;14.51;50.67
70434;BME280;57876;47.792;12.960;2023-04-26T11:55:23;96748.84;;;14.51;50.96
70434;BME280;57876;47.792;12.960;2023-04-26T11:57:50;96748.34;;;14.49;50.64
70434;BME280;57876;47.792;12.960;2023-04-26T12:00:15;96745.63;;;14.49;50.68
70434;BME280;57876;47.792;12.960;2023-04-26T12:02:43;96739.38;;;14.48;50.90
70434;BME280;57876;47.792;12.960;2023-04-26T12:05:09;96747.53;;;14.48;50.77
70434;BME280;57876;47.792;12.960;2023-04-26T12:07:35;96746.13;;;14.51;50.71
70434;BME280;57876;47.792;12.960;2023-04-26T12:10:20;96744.41;;;14.55;50.68
70434;BME280;57876;47.792;12.960;2023-04-26T12:12:49;96743.28;;;14.56;50.85
70434;BME280;57876;47.792;12.960;2023-04-26T12:15:14;96738.97;;;14.55;51.08
70434;BME280;57876;47.792;12.960;2023-04-26T12:17:39;96738.97;;;14.55;51.03
70434;BME280;57876;47.792;12.960;2023-04-26T12:20:10;96737.34;;;14.54;50.79
70434;BME280;57876;47.792;12.960;2023-04-26T12:22:34;96728.66;;;14.52;50.81
70434;BME280;57876;47.792;12.960;2023-04-26T12:25:06;96738.16;;;14.54;50.74
70434;BME280;57876;47.792;12.960;2023-04-26T12:27:30;96737.34;;;14.54;50.69
70434;BME280;57876;47.792;12.960;2023-04-26T12:29:55;96730.31;;;14.53;50.79
70434;BME280;57876;47.792;12.960;2023-04-26T12:32:20;96726.47;;;14.54;50.81
70434;BME280;57876;47.792;12.960;2023-04-26T12:34:45;96737.34;;;14.54;51.14
70434;BME280;57876;47.792;12.960;2023-04-26T12:37:09;96736.56;;;14.53;50.83
70434;BME280;57876;47.792;12.960;2023-04-26T12:39:34;96735.75;;;14.53;50.59
70434;BME280;57876;47.792;12.960;2023-04-26T12:41:58;96735.75;;;14.53;51.09
70434;BME280;57876;47.792;12.960;2023-04-26T12:44:23;96725.94;;;14.52;50.85
70434;BME280;57876;47.792;12.960;2023-04-26T12:46:47;96728.38;;;14.53;50.85
70434;BME280;57876;47.792;12.960;2023-04-26T12:49:12;96731.91;;;14.54;50.76
70434;BME280;57876;47.792;12.960;2023-04-26T12:51:36;96733.03;;;14.53;50.91